Time;durP1;ratioP1;P1;durP2;ratioP2;P2;SDS_P1;SDS_P2;PMS_P1;PMS_P2;Temp;Humidity;BMP_temperature;BMP_pressure;BME280_temperature;BME280_humidity;BME280_pressure;Samples;Min_cycle;Max_cycle;Signal;HPM_P1;HPM_P2
2023/07/20 00:06:04;;;;;;;37.58;27.10;;;;;;;26.52;53.53;101417.31;21058746;28;20035;-74
2023/07/20 00:16:05;;;;;;;36.03;25.52;;;;;;;26.57;53.73;101410.78;21039406;28;20036;-78
2023/07/20 00:26:07;;;;;;;31.95;25.00;;;;;;;26.51;53.21;101409.22;20998387;28;20476;-77
2023/07/20 00:36:09;;;;;;;35.38;25.80;;;;;;;26.49;53.30;101414.31;20997989;28;20032;-78
2023/07/20 00:46:12;;;;;;;27.15;22.95;;;;;;;26.45;53.02;101432.91;20995879;28;20029;-78
2023/07/20 00:56:15;;;;;;;29.95;23.75;;;;;;;26.39;53.00;101434.09;21069310;28;20047;-77
2023/07/20 01:06:22;;;;;;;29.27;22.42;;;;;;;26.38;53.18;101438.03;21080714;28;20024;-77
2023/07/20 01:16:24;;;;;;;;;;;;;;;26.30;53.08;101448.84;21093506;28;20044;-78
2023/07/20 01:26:52;;;;;;;60.45;25.67;;;;;;;26.17;52.17;101444.00;21084061;28;19916;-78
2023/07/20 01:36:54;;;;;;;;;;;;;;;26.32;53.24;101474.59;21013810;28;20032;-79
2023/07/20 01:46:56;;;;;;;37.13;21.58;;;;;;;26.34;52.43;101466.72;21052936;28;19916;-76
2023/07/20 01:56:57;;;;;;;37.67;23.08;;;;;;;26.22;52.41;101480.38;21052806;28;20106;-75
2023/07/20 02:07:00;;;;;;;37.25;22.48;;;;;;;26.24;52.72;101500.53;21075347;28;20036;-77
2023/07/20 02:17:04;;;;;;;35.53;21.75;;;;;;;26.05;52.46;101502.50;21066252;28;20044;-74
2023/07/20 02:27:07;;;;;;;35.88;21.98;;;;;;;26.43;56.14;101508.09;21089290;28;20066;-74
2023/07/20 02:37:08;;;;;;;37.33;21.42;;;;;;;26.61;56.00;101513.72;21085630;28;20039;-76
2023/07/20 02:47:10;;;;;;;29.30;19.80;;;;;;;26.89;55.45;101499.75;21041360;28;20025;-76
2023/07/20 02:57:14;;;;;;;29.35;19.98;;;;;;;27.04;55.24;101518.34;21046546;28;20052;-78
2023/07/20 03:07:15;;;;;;;29.30;20.00;;;;;;;27.00;54.68;101472.34;21046651;28;20052;-77
2023/07/20 03:17:16;;;;;;;27.77;20.02;;;;;;;27.13;54.29;101498.81;21058054;28;20032;-76
2023/07/20 03:27:21;;;;;;;29.15;18.42;;;;;;;27.36;54.53;101526.72;21073739;28;20036;-77
2023/07/20 03:37:22;;;;;;;28.25;18.45;;;;;;;27.43;54.25;101486.13;21025896;28;20036;-75
2023/07/20 03:47:24;;;;;;;22.42;17.38;;;;;;;27.50;53.78;101483.75;21034755;28;20032;-78
2023/07/20 03:57:25;;;;;;;23.67;17.92;;;;;;;27.47;53.83;101488.00;21045913;28;20040;-77
2023/07/20 04:07:26;;;;;;;24.48;17.38;;;;;;;27.49;53.74;101468.00;21033013;28;20028;-76
2023/07/20 04:17:28;;;;;;;23.13;17.50;;;;;;;27.62;53.37;101450.28;21055348;28;20089;-77
2023/07/20 04:27:29;;;;;;;23.52;18.13;;;;;;;27.65;53.17;101454.47;21034374;28;20051;-78
2023/07/20 04:37:31;;;;;;;23.23;17.23;;;;;;;27.70;53.23;101465.59;21050292;28;20039;-78
2023/07/20 04:47:32;;;;;;;22.90;17.25;;;;;;;27.74;52.92;101459.06;21078403;28;20028;-78
2023/07/20 04:57:33;;;;;;;19.38;16.00;;;;;;;27.75;52.90;101451.44;21075798;28;20044;-79
2023/07/20 05:07:35;;;;;;;19.73;15.85;;;;;;;27.80;52.74;101457.78;21076949;28;20090;-79
2023/07/20 05:17:36;;;;;;;21.42;16.17;;;;;;;27.83;52.70;101467.59;21076146;28;20036;-78
2023/07/20 05:27:39;;;;;;;19.30;14.88;;;;;;;27.84;52.55;101492.56;21009977;28;20403;-77
2023/07/20 05:37:40;;;;;;;18.20;15.15;;;;;;;27.83;52.39;101488.09;21061396;28;20109;-78
2023/07/20 05:47:42;;;;;;;19.17;15.07;;;;;;;27.89;52.20;101488.81;21070884;28;20052;-77
2023/07/20 05:57:47;;;;;;;20.52;15.68;;;;;;;27.91;52.19;101478.09;21043587;28;20028;-76
2023/07/20 06:07:49;;;;;;;17.38;13.93;;;;;;;27.97;51.83;101471.19;21049613;28;20044;-76
2023/07/20 06:17:50;;;;;;;17.58;14.20;;;;;;;27.97;51.87;101450.69;21038640;28;20040;-77
2023/07/20 06:27:55;;;;;;;16.83;14.52;;;;;;;27.97;51.86;101440.25;21058444;28;20040;-78
2023/07/20 06:37:59;;;;;;;16.58;12.85;;;;;;;27.94;51.77;101417.53;21052443;28;20542;-79
2023/07/20 06:48:00;;;;;;;17.75;15.07;;;;;;;28.03;51.54;101436.16;21019787;28;20032;-80
2023/07/20 06:58:01;;;;;;;15.23;12.93;;;;;;;28.04;51.49;101435.03;21085910;28;20105;-78
2023/07/20 07:08:04;;;;;;;16.10;13.80;;;;;;;28.07;51.58;101427.91;21085632;28;20020;-79
2023/07/20 07:18:06;;;;;;;15.68;13.05;;;;;;;28.04;51.67;101418.16;21083429;28;20043;-79
2023/07/20 07:28:07;;;;;;;16.52;13.07;;;;;;;27.98;51.47;101410.13;21084494;28;20047;-79
2023/07/20 07:38:09;;;;;;;15.50;13.65;;;;;;;28.10;51.15;101421.66;21081715;28;20449;-80
2023/07/20 07:48:14;;;;;;;16.05;12.80;;;;;;;28.06;51.48;101420.63;21055946;28;20040;-78
2023/07/20 07:58:15;;;;;;;13.23;11.63;;;;;;;28.07;51.45;101408.22;21033788;28;20040;-80
2023/07/20 08:08:17;;;;;;;15.75;12.70;;;;;;;28.12;51.31;101411.75;21063589;28;20090;-78
2023/07/20 08:18:19;;;;;;;14.65;12.52;;;;;;;28.06;51.10;101398.13;21033445;28;20044;-79
2023/07/20 08:28:20;;;;;;;14.82;12.32;;;;;;;28.13;51.07;101398.50;21055326;28;20578;-78
2023/07/20 08:38:22;;;;;;;15.68;12.40;;;;;;;28.14;51.07;101400.19;21053391;28;20044;-80
2023/07/20 08:48:24;;;;;;;13.73;12.23;;;;;;;28.05;51.31;101388.03;21072084;28;20479;-78
2023/07/20 08:58:28;;;;;;;13.13;11.73;;;;;;;28.14;51.13;101405.00;21027698;28;20036;-79
2023/07/20 09:08:29;;;;;;;14.77;12.27;;;;;;;28.18;50.89;101406.84;21039264;28;20094;-78
2023/07/20 09:18:32;;;;;;;14.52;12.23;;;;;;;27.99;51.24;101386.47;21035412;28;20117;-78
2023/07/20 09:28:43;;;;;;;14.68;11.95;;;;;;;28.16;50.93;101414.75;21024820;28;20032;-78
2023/07/20 09:38:45;;;;;;;14.40;12.05;;;;;;;28.18;50.84;101423.72;21055622;28;20028;-78
2023/07/20 09:48:53;;;;;;;13.65;11.57;;;;;;;28.12;51.17;101431.44;21075696;28;20448;-79
2023/07/20 09:58:57;;;;;;;15.52;12.20;;;;;;;28.18;51.09;101418.09;21074126;28;20150;-81
2023/07/20 10:09:02;;;;;;;13.45;11.32;;;;;;;28.22;50.79;101424.72;21076390;28;20036;-78
2023/07/20 10:19:31;;;;;;;13.77;11.88;;;;;;;28.16;51.16;101420.38;21093664;28;20078;-79
2023/07/20 10:29:33;;;;;;;13.30;11.50;;;;;;;28.17;50.90;101424.03;21019185;28;20041;-79
2023/07/20 10:39:35;;;;;;;14.10;11.73;;;;;;;28.14;51.12;101430.31;21059704;28;20043;-78
2023/07/20 10:50:03;;;;;;;13.30;11.55;;;;;;;28.02;50.99;101436.50;21075868;28;20375;-84
2023/07/20 11:00:12;;;;;;;;;;;;;;;28.19;51.16;101452.69;21088896;28;20044;-78
2023/07/20 11:10:19;;;;;;;15.05;11.77;;;;;;;28.12;51.09;101451.13;21091534;28;20359;-79
2023/07/20 11:20:21;;;;;;;13.20;11.63;;;;;;;28.14;51.04;101470.53;21092906;28;20039;-80
2023/07/20 11:30:22;;;;;;;13.40;11.63;;;;;;;28.18;50.88;101481.97;21088303;28;20070;-79
2023/07/20 11:40:25;;;;;;;14.50;11.90;;;;;;;28.24;51.22;101504.06;21086803;28;20607;-77
2023/07/20 11:50:26;;;;;;;13.30;11.15;;;;;;;28.22;50.95;101486.63;21085619;28;20421;-79
2023/07/20 12:00:27;;;;;;;13.27;11.45;;;;;;;28.26;51.04;101503.72;21079324;28;20090;-79
2023/07/20 12:10:57;;;;;;;12.30;10.75;;;;;;;28.25;50.91;101500.06;21089432;28;20070;-78
2023/07/20 12:21:01;;;;;;;13.25;11.10;;;;;;;28.25;50.96;101497.25;21126848;28;20028;-79
2023/07/20 12:31:13;;;;;;;13.65;11.50;;;;;;;28.25;50.96;101488.00;21111732;28;20040;-78
2023/07/20 12:41:17;;;;;;;14.23;11.80;;;;;;;28.24;51.16;101484.34;21089419;28;20059;-77
2023/07/20 12:51:18;;;;;;;14.75;11.07;;;;;;;28.28;51.27;101499.44;21076545;28;20430;-77
2023/07/20 13:01:21;;;;;;;12.75;11.02;;;;;;;28.10;51.02;101461.06;21025790;28;20843;-76
2023/07/20 13:11:22;;;;;;;13.88;12.38;;;;;;;28.26;51.18;101487.66;21052695;28;20418;-78
2023/07/20 13:21:24;;;;;;;17.25;13.68;;;;;;;28.28;51.50;101476.94;21073808;28;20119;-78
2023/07/20 13:31:29;;;;;;;19.90;16.15;;;;;;;28.00;51.98;101403.06;21073826;28;20056;-79
2023/07/20 13:41:34;;;;;;;23.40;17.52;;;;;;;28.33;52.47;101465.56;21056740;28;20044;-77
2023/07/20 13:51:35;;;;;;;26.27;19.75;;;;;;;28.41;53.57;101454.69;21080381;28;20368;-78
2023/07/20 14:01:37;;;;;;;30.45;22.25;;;;;;;28.36;54.50;101428.38;21089162;28;20482;-79
2023/07/20 14:11:38;;;;;;;30.95;23.67;;;;;;;28.44;54.95;101431.53;21088588;28;20058;-79
2023/07/20 14:21:40;;;;;;;44.72;23.40;;;;;;;28.57;55.05;101448.34;21087942;28;20099;-78
2023/07/20 14:31:41;;;;;;;52.78;27.77;;;;;;;28.06;54.82;101406.56;21072673;28;20070;-77
2023/07/20 14:41:42;;;;;;;66.72;28.38;;;;;;;27.85;54.47;101437.16;21093407;28;20093;-76
2023/07/20 14:51:46;;;;;;;63.90;30.70;;;;;;;27.68;54.45;101440.63;21085277;28;20052;-77
2023/07/20 15:01:48;;;;;;;66.40;32.60;;;;;;;27.39;54.14;101417.63;21083715;28;20388;-78
2023/07/20 15:11:49;;;;;;;310.92;46.92;;;;;;;27.44;54.35;101431.56;21083042;28;20474;-77
2023/07/20 15:21:53;;;;;;;122.38;33.58;;;;;;;27.41;54.44;101435.03;21079632;28;20048;-75
2023/07/20 15:31:55;;;;;;;95.20;34.15;;;;;;;27.31;54.94;101428.47;21061976;28;20110;-68
2023/07/20 15:41:56;;;;;;;80.10;35.38;;;;;;;27.25;55.52;101412.03;21080913;28;20036;-68
2023/07/20 15:51:57;;;;;;;72.40;31.92;;;;;;;27.28;56.36;101408.59;21080709;28;20399;-67
2023/07/20 16:01:59;;;;;;;69.82;30.63;;;;;;;27.21;56.45;101392.16;21080206;28;20491;-67
2023/07/20 16:12:00;;;;;;;52.45;32.22;;;;;;;26.80;56.37;101339.63;21077705;28;20044;-66
2023/07/20 16:22:05;;;;;;;56.20;32.10;;;;;;;27.17;56.01;101382.72;21079017;28;20545;-67
2023/07/20 16:32:06;;;;;;;51.38;29.52;;;;;;;27.08;55.42;101374.19;21034626;28;20450;-66
2023/07/20 16:42:08;;;;;;;48.92;29.85;;;;;;;26.91;55.10;101342.22;20994296;28;20052;-67
2023/07/20 16:52:11;;;;;;;43.80;29.17;;;;;;;26.95;54.64;101352.50;20993781;28;20051;-68
2023/07/20 17:02:12;;;;;;;48.90;30.20;;;;;;;26.94;54.09;101352.81;20993042;28;20033;-68
2023/07/20 17:12:13;;;;;;;45.67;29.88;;;;;;;26.88;53.67;101351.25;21046848;28;20044;-68
2023/07/20 17:22:15;;;;;;;41.25;29.60;;;;;;;26.74;53.43;101312.78;21078018;28;20101;-67
2023/07/20 17:32:16;;;;;;;43.72;31.60;;;;;;;26.88;53.18;101345.63;21092956;28;20552;-67
2023/07/20 17:42:18;;;;;;;37.55;28.83;;;;;;;26.81;53.05;101310.38;21079519;28;20040;-66
2023/07/20 17:52:20;;;;;;;40.28;29.95;;;;;;;26.79;52.99;101329.50;21018522;28;20415;-68
2023/07/20 18:02:25;;;;;;;37.35;28.30;;;;;;;26.73;52.84;101311.13;21091110;28;20479;-67
2023/07/20 18:12:26;;;;;;;37.30;29.33;;;;;;;26.75;52.53;101300.38;21081464;28;20037;-67
2023/07/20 18:22:27;;;;;;;42.85;29.95;;;;;;;26.67;52.61;101292.72;21073898;28;20040;-65
2023/07/20 18:32:29;;;;;;;41.70;29.52;;;;;;;26.62;52.85;101278.78;21088349;28;20055;-66
2023/07/20 18:42:30;;;;;;;47.38;31.50;;;;;;;26.68;52.75;101290.75;21073888;28;20047;-67
2023/07/20 18:52:32;;;;;;;39.20;30.15;;;;;;;26.67;53.02;101295.53;21019754;28;20048;-67
2023/07/20 19:02:33;;;;;;;41.92;31.20;;;;;;;26.63;53.35;101288.88;21002951;28;20044;-68
2023/07/20 19:12:35;;;;;;;40.83;30.35;;;;;;;26.55;52.89;101255.91;21012261;28;20113;-68
2023/07/20 19:22:36;;;;;;;45.45;30.75;;;;;;;26.59;53.14;101262.56;21105070;28;20444;-67
2023/07/20 19:32:37;;;;;;;40.47;31.00;;;;;;;26.56;53.41;101260.38;21123180;28;20036;-67
2023/07/20 19:42:39;;;;;;;50.00;30.55;;;;;;;26.55;53.21;101259.53;21032470;28;20028;-67
2023/07/20 19:52:43;;;;;;;41.67;31.33;;;;;;;26.57;53.56;101250.81;21001613;28;20040;-68
2023/07/20 20:02:44;;;;;;;41.08;30.63;;;;;;;26.55;53.42;101269.94;21076383;28;20044;-67
2023/07/20 20:12:46;;;;;;;42.25;30.38;;;;;;;26.44;53.56;101241.25;21077798;28;20047;-67
2023/07/20 20:22:48;;;;;;;39.63;29.52;;;;;;;26.49;53.15;101235.53;21085611;28;20028;-69
2023/07/20 20:32:50;;;;;;;38.45;28.38;;;;;;;26.45;52.97;101222.44;21078768;28;20040;-67
2023/07/20 20:42:51;;;;;;;39.72;28.17;;;;;;;26.08;53.03;101151.34;21078956;28;20052;-68
2023/07/20 20:52:53;;;;;;;34.05;26.92;;;;;;;26.34;53.04;101186.16;21077763;28;20444;-67
2023/07/20 21:02:55;;;;;;;34.92;27.05;;;;;;;26.40;53.02;101205.69;21076676;28;20471;-67
2023/07/20 21:12:56;;;;;;;34.25;27.42;;;;;;;26.36;52.26;101211.91;21076568;28;20571;-68
2023/07/20 21:22:58;;;;;;;33.92;26.48;;;;;;;26.34;52.97;101190.91;21076122;28;20390;-68
2023/07/20 21:32:59;;;;;;;34.15;26.85;;;;;;;26.33;52.79;101164.00;21075997;28;20120;-68
2023/07/20 21:43:01;;;;;;;34.17;27.02;;;;;;;26.32;52.92;101149.16;21075541;28;20036;-67
2023/07/20 21:53:02;;;;;;;31.00;25.25;;;;;;;26.26;52.51;101124.34;21075242;28;20086;-67
2023/07/20 22:03:03;;;;;;;34.40;26.17;;;;;;;26.29;52.56;101149.75;21074297;28;20040;-68
2023/07/20 22:13:06;;;;;;;31.60;25.38;;;;;;;26.15;52.55;101145.31;21083243;28;20043;-68
2023/07/20 22:23:07;;;;;;;31.33;25.75;;;;;;;26.22;52.88;101131.72;21088968;28;20055;-67
2023/07/20 22:33:09;;;;;;;34.25;27.15;;;;;;;26.18;52.43;101131.50;21088742;28;20048;-69
2023/07/20 22:43:10;;;;;;;32.80;26.52;;;;;;;26.18;52.23;101131.50;21088418;28;20056;-68
2023/07/20 22:53:11;;;;;;;32.20;26.05;;;;;;;26.18;52.51;101134.31;21086839;28;20044;-69
2023/07/20 23:03:13;;;;;;;32.72;26.23;;;;;;;26.18;52.04;101130.66;21084656;28;20437;-68
2023/07/20 23:13:17;;;;;;;29.95;25.45;;;;;;;26.09;51.42;101125.78;21085247;28;20087;-68
2023/07/20 23:23:18;;;;;;;33.33;26.08;;;;;;;26.33;55.33;101116.31;21083724;28;20051;-69
2023/07/20 23:33:20;;;;;;;32.13;26.23;;;;;;;26.55;55.39;101112.78;21084151;28;20101;-68
2023/07/20 23:43:22;;;;;;;34.95;27.33;;;;;;;26.74;54.94;101110.63;21082654;28;20032;-68
2023/07/20 23:53:25;;;;;;;31.85;25.92;;;;;;;26.88;54.89;101113.41;21082603;28;20446;-69
